Terminal Aerodrome Forecast
Issued by NWS

Home | Current Version | Previous Version | Text Only | Print | Product List | Glossary On
Versions: 1 2 3 4 5 6 7 8 9 10 11 12 13 14 15 16 17
410
FTUS43 KPAH 271736 AAB
TAFCGI
TAF AMD
KCGI 271736Z 2718/2818 25007KT P6SM VCSH SCT025 BKN150
      TEMPO 2721/2801 4SM TSRA BR OVC025CB
     FM280100 26004KT 6SM -SHRA BR OVC040
     FM280900 31004KT 2SM BR BKN008
     FM281600 35008KT P6SM BKN020=

USA.gov is the U.S. government's official web portal to all federal, state and local government web resources and services.